sensor_id;sensor_type;location;lat;lon;timestamp;pressure;altitude;pressure_sealevel;temperature;humidity
21520;BME280;10921;53.614;9.882;2023-04-24T00:02:02;99729.50;;;13.81;87.75
21520;BME280;10921;53.614;9.882;2023-04-24T00:04:29;99771.16;;;13.98;87.71
21520;BME280;10921;53.614;9.882;2023-04-24T00:06:58;99765.91;;;13.90;88.09
21520;BME280;10921;53.614;9.882;2023-04-24T00:09:26;99756.22;;;13.89;87.96
21520;BME280;10921;53.614;9.882;2023-04-24T00:11:52;99728.38;;;13.75;88.11
21520;BME280;10921;53.614;9.882;2023-04-24T00:14:19;99762.47;;;13.96;88.46
21520;BME280;10921;53.614;9.882;2023-04-24T00:16:46;99742.03;;;13.95;88.57
21520;BME280;10921;53.614;9.882;2023-04-24T00:19:12;99730.22;;;13.89;88.77
21520;BME280;10921;53.614;9.882;2023-04-24T00:21:39;99710.72;;;13.81;88.73
21520;BME280;10921;53.614;9.882;2023-04-24T00:24:06;99717.25;;;13.93;88.72
21520;BME280;10921;53.614;9.882;2023-04-24T00:26:35;99714.31;;;13.88;88.92
21520;BME280;10921;53.614;9.882;2023-04-24T00:29:01;99693.09;;;13.71;88.80
21520;BME280;10921;53.614;9.882;2023-04-24T00:31:28;99705.69;;;13.71;88.75
21520;BME280;10921;53.614;9.882;2023-04-24T00:33:54;99718.41;;;13.84;88.73
21520;BME280;10921;53.614;9.882;2023-04-24T00:36:25;99711.00;;;13.86;89.33
21520;BME280;10921;53.614;9.882;2023-04-24T00:38:54;99700.78;;;13.75;89.04
21520;BME280;10921;53.614;9.882;2023-04-24T00:41:21;99684.16;;;13.64;89.19
21520;BME280;10921;53.614;9.882;2023-04-24T00:43:48;99716.09;;;13.81;89.07
21520;BME280;10921;53.614;9.882;2023-04-24T00:46:16;99724.78;;;13.83;89.26
21520;BME280;10921;53.614;9.882;2023-04-24T00:48:43;99712.56;;;13.80;89.10
21520;BME280;10921;53.614;9.882;2023-04-24T00:51:09;99692.66;;;13.68;89.22
21520;BME280;10921;53.614;9.882;2023-04-24T00:53:36;99705.31;;;13.74;88.98
21520;BME280;10921;53.614;9.882;2023-04-24T00:56:04;99716.22;;;13.72;88.92
21520;BME280;10921;53.614;9.882;2023-04-24T00:58:31;99676.78;;;13.52;88.75
21520;BME280;10921;53.614;9.882;2023-04-24T01:00:58;99703.69;;;13.58;88.85
21520;BME280;10921;53.614;9.882;2023-04-24T01:03:29;99668.78;;;13.37;89.08
21520;BME280;10921;53.614;9.882;2023-04-24T01:05:58;99717.47;;;13.55;88.83
21520;BME280;10921;53.614;9.882;2023-04-24T01:08:26;99690.03;;;13.38;88.92
21520;BME280;10921;53.614;9.882;2023-04-24T01:10:55;99699.66;;;13.33;88.66
21520;BME280;10921;53.614;9.882;2023-04-24T01:13:23;99713.50;;;13.36;89.18
21520;BME280;10921;53.614;9.882;2023-04-24T01:15:50;99712.38;;;13.31;89.72
21520;BME280;10921;53.614;9.882;2023-04-24T01:18:16;99664.94;;;12.95;90.01
21520;BME280;10921;53.614;9.882;2023-04-24T01:20:44;99715.00;;;13.24;90.39
21520;BME280;10921;53.614;9.882;2023-04-24T01:23:13;99714.53;;;13.21;90.51
21520;BME280;10921;53.614;9.882;2023-04-24T01:25:39;99711.28;;;13.11;90.53
21520;BME280;10921;53.614;9.882;2023-04-24T01:28:06;99692.97;;;12.99;90.80
21520;BME280;10921;53.614;9.882;2023-04-24T01:30:33;99719.31;;;13.11;91.97
21520;BME280;10921;53.614;9.882;2023-04-24T01:33:00;99688.03;;;12.96;92.69
21520;BME280;10921;53.614;9.882;2023-04-24T01:35:27;99699.63;;;13.03;92.75
21520;BME280;10921;53.614;9.882;2023-04-24T01:37:54;99703.63;;;13.08;92.82
21520;BME280;10921;53.614;9.882;2023-04-24T01:40:21;99700.56;;;13.11;93.09
21520;BME280;10921;53.614;9.882;2023-04-24T01:42:47;99667.31;;;12.90;92.85
21520;BME280;10921;53.614;9.882;2023-04-24T01:45:14;99698.72;;;13.11;93.27
21520;BME280;10921;53.614;9.882;2023-04-24T01:47:41;99699.38;;;13.13;93.24
21520;BME280;10921;53.614;9.882;2023-04-24T01:50:08;99700.84;;;13.16;93.55
21520;BME280;10921;53.614;9.882;2023-04-24T01:52:35;99701.88;;;13.15;93.62
21520;BME280;10921;53.614;9.882;2023-04-24T01:55:03;99695.88;;;13.13;93.30
21520;BME280;10921;53.614;9.882;2023-04-24T01:57:31;99695.13;;;13.19;92.99
21520;BME280;10921;53.614;9.882;2023-04-24T01:59:58;99699.47;;;13.20;92.65
21520;BME280;10921;53.614;9.882;2023-04-24T02:02:24;99677.47;;;13.10;92.34
21520;BME280;10921;53.614;9.882;2023-04-24T02:04:53;99675.91;;;13.15;91.87
21520;BME280;10921;53.614;9.882;2023-04-24T02:07:20;99650.78;;;13.01;91.21
21520;BME280;10921;53.614;9.882;2023-04-24T02:09:47;99665.09;;;13.09;90.28
21520;BME280;10921;53.614;9.882;2023-04-24T02:12:15;99644.72;;;12.93;89.54
21520;BME280;10921;53.614;9.882;2023-04-24T02:14:41;99674.22;;;13.14;88.84
21520;BME280;10921;53.614;9.882;2023-04-24T02:17:08;99655.50;;;12.99;88.25
21520;BME280;10921;53.614;9.882;2023-04-24T02:19:35;99656.81;;;12.89;88.21
21520;BME280;10921;53.614;9.882;2023-04-24T02:22:02;99575.31;;;12.47;87.84
21520;BME280;10921;53.614;9.882;2023-04-24T02:24:28;99665.19;;;13.00;87.42
21520;BME280;10921;53.614;9.882;2023-04-24T02:26:54;99667.63;;;12.95;86.94
21520;BME280;10921;53.614;9.882;2023-04-24T02:29:21;99664.00;;;12.88;86.36
21520;BME280;10921;53.614;9.882;2023-04-24T02:31:49;99668.34;;;12.89;86.20
21520;BME280;10921;53.614;9.882;2023-04-24T02:34:15;99660.25;;;12.83;85.73
21520;BME280;10921;53.614;9.882;2023-04-24T02:36:42;99668.44;;;12.81;85.45
21520;BME280;10921;53.614;9.882;2023-04-24T02:39:09;99663.47;;;12.78;85.21
21520;BME280;10921;53.614;9.882;2023-04-24T02:41:35;99667.69;;;12.73;85.31
21520;BME280;10921;53.614;9.882;2023-04-24T02:44:02;99670.72;;;12.69;85.23
21520;BME280;10921;53.614;9.882;2023-04-24T02:46:28;99666.97;;;12.64;85.14
21520;BME280;10921;53.614;9.882;2023-04-24T02:48:55;99659.34;;;12.53;85.39
21520;BME280;10921;53.614;9.882;2023-04-24T02:51:21;99673.50;;;12.61;85.31
21520;BME280;10921;53.614;9.882;2023-04-24T02:53:48;99659.66;;;12.58;85.44
21520;BME280;10921;53.614;9.882;2023-04-24T02:56:14;99657.13;;;12.42;86.27
21520;BME280;10921;53.614;9.882;2023-04-24T02:58:41;99677.28;;;12.52;86.19
21520;BME280;10921;53.614;9.882;2023-04-24T03:01:08;99669.78;;;12.48;86.31
21520;BME280;10921;53.614;9.882;2023-04-24T03:03:37;99663.66;;;12.39;86.92
21520;BME280;10921;53.614;9.882;2023-04-24T03:06:04;99666.75;;;12.36;87.83
21520;BME280;10921;53.614;9.882;2023-04-24T03:08:32;99666.53;;;12.38;88.55
21520;BME280;10921;53.614;9.882;2023-04-24T03:10:59;99672.09;;;12.36;88.71
21520;BME280;10921;53.614;9.882;2023-04-24T03:13:26;99662.56;;;12.33;89.33
21520;BME280;10921;53.614;9.882;2023-04-24T03:15:52;99664.59;;;12.31;89.61
21520;BME280;10921;53.614;9.882;2023-04-24T03:18:20;99635.31;;;12.15;89.32
21520;BME280;10921;53.614;9.882;2023-04-24T03:20:47;99663.94;;;12.29;89.05
21520;BME280;10921;53.614;9.882;2023-04-24T03:23:13;99660.88;;;12.18;89.79
21520;BME280;10921;53.614;9.882;2023-04-24T03:25:40;99615.63;;;11.93;89.80
21520;BME280;10921;53.614;9.882;2023-04-24T03:28:09;99657.72;;;12.14;89.73
21520;BME280;10921;53.614;9.882;2023-04-24T03:30:35;99677.56;;;12.20;89.35
21520;BME280;10921;53.614;9.882;2023-04-24T03:33:02;99672.06;;;12.21;88.98
21520;BME280;10921;53.614;9.882;2023-04-24T03:35:28;99679.59;;;12.18;89.27
21520;BME280;10921;53.614;9.882;2023-04-24T03:37:55;99672.94;;;12.14;89.30
21520;BME280;10921;53.614;9.882;2023-04-24T03:40:21;99673.13;;;12.12;88.68
21520;BME280;10921;53.614;9.882;2023-04-24T03:42:48;99664.03;;;11.98;88.76
21520;BME280;10921;53.614;9.882;2023-04-24T03:45:14;99682.88;;;12.05;88.89
21520;BME280;10921;53.614;9.882;2023-04-24T03:47:41;99672.72;;;12.01;88.91
21520;BME280;10921;53.614;9.882;2023-04-24T03:50:08;99679.91;;;12.00;88.50
21520;BME280;10921;53.614;9.882;2023-04-24T03:52:37;99633.97;;;11.74;88.25
21520;BME280;10921;53.614;9.882;2023-04-24T03:55:03;99652.28;;;11.85;88.10
21520;BME280;10921;53.614;9.882;2023-04-24T03:57:30;99634.34;;;11.62;88.62
21520;BME280;10921;53.614;9.882;2023-04-24T04:00:01;99637.88;;;11.63;88.50
21520;BME280;10921;53.614;9.882;2023-04-24T04:02:32;99667.66;;;11.83;88.03
21520;BME280;10921;53.614;9.882;2023-04-24T04:04:59;99668.66;;;11.82;87.46
21520;BME280;10921;53.614;9.882;2023-04-24T04:07:25;99668.50;;;11.83;86.67
21520;BME280;10921;53.614;9.882;2023-04-24T04:09:52;99621.56;;;11.58;85.79
21520;BME280;10921;53.614;9.882;2023-04-24T04:12:18;99659.34;;;11.78;85.19
21520;BME280;10921;53.614;9.882;2023-04-24T04:14:45;99656.19;;;11.74;84.71
21520;BME280;10921;53.614;9.882;2023-04-24T04:17:11;99666.22;;;11.72;83.93
21520;BME280;10921;53.614;9.882;2023-04-24T04:19:38;99625.44;;;11.47;83.74
21520;BME280;10921;53.614;9.882;2023-04-24T04:22:04;99668.41;;;11.69;83.46
21520;BME280;10921;53.614;9.882;2023-04-24T04:24:31;99669.22;;;11.69;83.06
21520;BME280;10921;53.614;9.882;2023-04-24T04:26:58;99667.06;;;11.64;82.89
21520;BME280;10921;53.614;9.882;2023-04-24T04:29:24;99657.41;;;11.63;82.86
21520;BME280;10921;53.614;9.882;2023-04-24T04:31:52;99654.97;;;11.54;82.48
21520;BME280;10921;53.614;9.882;2023-04-24T04:34:19;99659.97;;;11.57;82.10
21520;BME280;10921;53.614;9.882;2023-04-24T04:36:45;99670.09;;;11.61;82.06
21520;BME280;10921;53.614;9.882;2023-04-24T04:39:12;99668.91;;;11.64;82.16
21520;BME280;10921;53.614;9.882;2023-04-24T04:41:41;99652.31;;;11.46;82.42
21520;BME280;10921;53.614;9.882;2023-04-24T04:44:07;99691.78;;;11.67;82.44
21520;BME280;10921;53.614;9.882;2023-04-24T04:46:34;99696.59;;;11.71;82.25
21520;BME280;10921;53.614;9.882;2023-04-24T04:49:02;99692.25;;;11.78;81.92
21520;BME280;10921;53.614;9.882;2023-04-24T04:51:29;99685.72;;;11.81;81.13
21520;BME280;10921;53.614;9.882;2023-04-24T04:53:56;99678.19;;;11.84;80.77
21520;BME280;10921;53.614;9.882;2023-04-24T04:56:22;99660.00;;;11.80;80.29
21520;BME280;10921;53.614;9.882;2023-04-24T04:58:49;99695.09;;;12.00;79.20
21520;BME280;10921;53.614;9.882;2023-04-24T05:01:16;99694.09;;;12.01;78.33
21520;BME280;10921;53.614;9.882;2023-04-24T05:03:43;99674.44;;;11.93;77.76
21520;BME280;10921;53.614;9.882;2023-04-24T05:06:10;99677.88;;;12.02;77.43
21520;BME280;10921;53.614;9.882;2023-04-24T05:08:37;99678.38;;;12.06;76.94
21520;BME280;10921;53.614;9.882;2023-04-24T05:11:03;99687.84;;;12.08;77.39
21520;BME280;10921;53.614;9.882;2023-04-24T05:13:30;99682.50;;;12.08;77.35
21520;BME280;10921;53.614;9.882;2023-04-24T05:16:06;99685.81;;;12.10;77.58
21520;BME280;10921;53.614;9.882;2023-04-24T05:18:33;99675.69;;;12.06;77.42
21520;BME280;10921;53.614;9.882;2023-04-24T05:20:59;99689.69;;;12.08;77.46
21520;BME280;10921;53.614;9.882;2023-04-24T05:23:26;99682.50;;;12.08;77.91
21520;BME280;10921;53.614;9.882;2023-04-24T05:25:52;99675.13;;;12.10;78.13
21520;BME280;10921;53.614;9.882;2023-04-24T05:28:19;99648.34;;;11.95;77.42
21520;BME280;10921;53.614;9.882;2023-04-24T05:30:46;99683.84;;;12.27;77.38
21520;BME280;10921;53.614;9.882;2023-04-24T05:33:13;99677.22;;;12.38;77.31
21520;BME280;10921;53.614;9.882;2023-04-24T05:35:40;99679.66;;;12.47;76.29
21520;BME280;10921;53.614;9.882;2023-04-24T05:38:12;99684.09;;;12.55;75.50
21520;BME280;10921;53.614;9.882;2023-04-24T05:40:39;99686.97;;;12.68;74.46
21520;BME280;10921;53.614;9.882;2023-04-24T05:43:06;99696.88;;;12.82;74.86
21520;BME280;10921;53.614;9.882;2023-04-24T05:45:32;99653.66;;;12.71;74.06
21520;BME280;10921;53.614;9.882;2023-04-24T05:48:02;99685.59;;;13.01;72.93
21520;BME280;10921;53.614;9.882;2023-04-24T05:50:29;99677.47;;;13.10;71.87
21520;BME280;10921;53.614;9.882;2023-04-24T05:52:55;99684.59;;;13.17;70.69
21520;BME280;10921;53.614;9.882;2023-04-24T05:55:24;99688.88;;;13.26;71.31
21520;BME280;10921;53.614;9.882;2023-04-24T05:57:51;99679.34;;;13.24;71.38
21520;BME280;10921;53.614;9.882;2023-04-24T06:00:18;99664.66;;;13.20;70.32
21520;BME280;10921;53.614;9.882;2023-04-24T06:02:46;99683.56;;;13.33;70.16
21520;BME280;10921;53.614;9.882;2023-04-24T06:05:13;99645.63;;;13.15;69.34
21520;BME280;10921;53.614;9.882;2023-04-24T06:07:41;99676.63;;;13.38;69.08
21520;BME280;10921;53.614;9.882;2023-04-24T06:10:08;99669.81;;;13.36;69.28
21520;BME280;10921;53.614;9.882;2023-04-24T06:12:35;99677.16;;;13.49;68.79
21520;BME280;10921;53.614;9.882;2023-04-24T06:15:03;99674.97;;;13.37;69.09
21520;BME280;10921;53.614;9.882;2023-04-24T06:17:30;99682.44;;;13.57;68.53
21520;BME280;10921;53.614;9.882;2023-04-24T06:19:57;99688.50;;;13.65;68.67
21520;BME280;10921;53.614;9.882;2023-04-24T06:22:23;99670.25;;;13.76;67.73
21520;BME280;10921;53.614;9.882;2023-04-24T06:24:50;99640.03;;;13.46;66.91
21520;BME280;10921;53.614;9.882;2023-04-24T06:27:16;99702.34;;;13.90;67.14
21520;BME280;10921;53.614;9.882;2023-04-24T06:29:43;99697.72;;;13.99;66.77
21520;BME280;10921;53.614;9.882;2023-04-24T06:32:09;99668.56;;;13.89;66.43
21520;BME280;10921;53.614;9.882;2023-04-24T06:34:36;99689.53;;;14.07;65.73
21520;BME280;10921;53.614;9.882;2023-04-24T06:37:03;99696.38;;;14.09;65.55
21520;BME280;10921;53.614;9.882;2023-04-24T06:39:29;99692.94;;;14.16;65.09
21520;BME280;10921;53.614;9.882;2023-04-24T06:41:56;99687.75;;;14.14;64.27
21520;BME280;10921;53.614;9.882;2023-04-24T06:44:22;99690.94;;;14.24;64.47
21520;BME280;10921;53.614;9.882;2023-04-24T06:46:49;99690.56;;;14.27;64.86
21520;BME280;10921;53.614;9.882;2023-04-24T06:49:15;99690.84;;;14.39;64.14
21520;BME280;10921;53.614;9.882;2023-04-24T06:51:45;99693.63;;;14.46;63.33
21520;BME280;10921;53.614;9.882;2023-04-24T06:54:14;99703.50;;;14.66;63.43
21520;BME280;10921;53.614;9.882;2023-04-24T06:56:41;99669.38;;;14.60;62.34
21520;BME280;10921;53.614;9.882;2023-04-24T06:59:07;99689.88;;;14.96;61.83
21520;BME280;10921;53.614;9.882;2023-04-24T07:01:34;99688.06;;;15.09;61.17
21520;BME280;10921;53.614;9.882;2023-04-24T07:04:00;99700.16;;;15.33;60.72
21520;BME280;10921;53.614;9.882;2023-04-24T07:06:28;99667.09;;;15.33;60.43
21520;BME280;10921;53.614;9.882;2023-04-24T07:08:56;99711.09;;;15.66;60.44
21520;BME280;10921;53.614;9.882;2023-04-24T07:11:23;99700.75;;;15.76;60.53
21520;BME280;10921;53.614;9.882;2023-04-24T07:13:50;99661.88;;;15.72;59.47
21520;BME280;10921;53.614;9.882;2023-04-24T07:16:16;99685.91;;;15.87;58.38
21520;BME280;10921;53.614;9.882;2023-04-24T07:18:43;99698.75;;;15.85;58.98
21520;BME280;10921;53.614;9.882;2023-04-24T07:21:09;99702.47;;;15.84;58.44
21520;BME280;10921;53.614;9.882;2023-04-24T07:23:36;99700.78;;;15.90;58.29
21520;BME280;10921;53.614;9.882;2023-04-24T07:26:02;99702.44;;;15.77;58.40
21520;BME280;10921;53.614;9.882;2023-04-24T07:28:29;99699.31;;;15.67;58.20
21520;BME280;10921;53.614;9.882;2023-04-24T07:30:58;99673.56;;;15.52;59.07
21520;BME280;10921;53.614;9.882;2023-04-24T07:33:26;99694.72;;;15.61;59.95
21520;BME280;10921;53.614;9.882;2023-04-24T07:35:53;99718.88;;;15.55;58.56
21520;BME280;10921;53.614;9.882;2023-04-24T07:38:20;99712.91;;;15.59;60.19
21520;BME280;10921;53.614;9.882;2023-04-24T07:40:48;99688.25;;;15.42;59.32
21520;BME280;10921;53.614;9.882;2023-04-24T07:43:15;99721.41;;;15.63;58.56
21520;BME280;10921;53.614;9.882;2023-04-24T07:45:41;99734.28;;;15.74;58.22
21520;BME280;10921;53.614;9.882;2023-04-24T07:48:08;99719.78;;;15.68;57.96
21520;BME280;10921;53.614;9.882;2023-04-24T07:50:35;99733.47;;;15.73;57.43
21520;BME280;10921;53.614;9.882;2023-04-24T07:53:02;99712.31;;;15.57;58.13
21520;BME280;10921;53.614;9.882;2023-04-24T07:55:28;99738.00;;;15.73;58.00
21520;BME280;10921;53.614;9.882;2023-04-24T07:57:55;99753.47;;;15.64;58.66
21520;BME280;10921;53.614;9.882;2023-04-24T08:00:22;99758.63;;;15.59;58.28
21520;BME280;10921;53.614;9.882;2023-04-24T08:02:48;99745.09;;;15.46;58.48
21520;BME280;10921;53.614;9.882;2023-04-24T08:05:15;99764.53;;;15.48;58.19
21520;BME280;10921;53.614;9.882;2023-04-24T08:07:42;99759.41;;;15.53;58.44
21520;BME280;10921;53.614;9.882;2023-04-24T08:10:11;99722.53;;;15.40;58.69
21520;BME280;10921;53.614;9.882;2023-04-24T08:12:38;99737.16;;;15.66;57.66
21520;BME280;10921;53.614;9.882;2023-04-24T08:15:05;99750.84;;;15.77;58.88
21520;BME280;10921;53.614;9.882;2023-04-24T08:17:32;99754.56;;;15.76;58.20
21520;BME280;10921;53.614;9.882;2023-04-24T08:19:59;99762.06;;;15.88;57.81
21520;BME280;10921;53.614;9.882;2023-04-24T08:22:28;99759.78;;;15.91;57.30
21520;BME280;10921;53.614;9.882;2023-04-24T08:24:55;99724.72;;;15.65;57.25
21520;BME280;10921;53.614;9.882;2023-04-24T08:27:23;99768.28;;;15.95;56.92
21520;BME280;10921;53.614;9.882;2023-04-24T08:29:50;99757.91;;;15.92;57.05
21520;BME280;10921;53.614;9.882;2023-04-24T08:32:17;99749.66;;;15.87;57.02
21520;BME280;10921;53.614;9.882;2023-04-24T08:34:43;99723.75;;;15.79;56.97
21520;BME280;10921;53.614;9.882;2023-04-24T08:37:10;99762.28;;;15.93;57.19
21520;BME280;10921;53.614;9.882;2023-04-24T08:39:37;99772.00;;;15.87;56.94
21520;BME280;10921;53.614;9.882;2023-04-24T08:42:05;99771.78;;;15.89;57.46
21520;BME280;10921;53.614;9.882;2023-04-24T08:44:34;99781.09;;;15.93;56.95
21520;BME280;10921;53.614;9.882;2023-04-24T08:47:02;99783.16;;;15.84;57.80
21520;BME280;10921;53.614;9.882;2023-04-24T08:49:29;99745.53;;;15.49;58.02
21520;BME280;10921;53.614;9.882;2023-04-24T08:51:56;99780.81;;;15.74;57.74
21520;BME280;10921;53.614;9.882;2023-04-24T08:54:23;99772.75;;;15.68;58.12
21520;BME280;10921;53.614;9.882;2023-04-24T08:56:53;99777.72;;;15.71;57.99
21520;BME280;10921;53.614;9.882;2023-04-24T08:59:24;99770.69;;;15.70;57.46
21520;BME280;10921;53.614;9.882;2023-04-24T09:01:51;99776.06;;;15.70;58.25
21520;BME280;10921;53.614;9.882;2023-04-24T09:04:19;99781.06;;;15.73;57.79
21520;BME280;10921;53.614;9.882;2023-04-24T09:06:49;99772.34;;;15.77;58.36
21520;BME280;10921;53.614;9.882;2023-04-24T09:09:16;99781.06;;;15.79;57.44
21520;BME280;10921;53.614;9.882;2023-04-24T09:11:44;99772.34;;;15.77;57.57
21520;BME280;10921;53.614;9.882;2023-04-24T09:14:11;99794.94;;;15.90;57.62
21520;BME280;10921;53.614;9.882;2023-04-24T09:16:37;99782.13;;;15.85;57.30
21520;BME280;10921;53.614;9.882;2023-04-24T09:19:04;99770.69;;;15.76;57.62
21520;BME280;10921;53.614;9.882;2023-04-24T09:21:32;99789.56;;;15.83;57.22
21520;BME280;10921;53.614;9.882;2023-04-24T09:24:01;99800.56;;;15.95;57.61
21520;BME280;10921;53.614;9.882;2023-04-24T09:26:30;99793.91;;;15.84;57.15
21520;BME280;10921;53.614;9.882;2023-04-24T09:28:58;99795.13;;;15.81;57.54
21520;BME280;10921;53.614;9.882;2023-04-24T09:31:28;99795.34;;;15.80;58.12
21520;BME280;10921;53.614;9.882;2023-04-24T09:34:02;99794.31;;;15.81;58.38
21520;BME280;10921;53.614;9.882;2023-04-24T09:36:39;99800.94;;;15.85;57.78
21520;BME280;10921;53.614;9.882;2023-04-24T09:39:12;99809.66;;;15.94;57.56
21520;BME280;10921;53.614;9.882;2023-04-24T09:41:54;99797.03;;;15.94;57.31
21520;BME280;10921;53.614;9.882;2023-04-24T09:44:26;99797.03;;;15.94;56.48
21520;BME280;10921;53.614;9.882;2023-04-24T09:46:55;99808.19;;;15.91;56.24
21520;BME280;10921;53.614;9.882;2023-04-24T09:51:50;99800.94;;;15.85;57.12
21520;BME280;10921;53.614;9.882;2023-04-24T09:54:18;99798.47;;;15.83;57.90
21520;BME280;10921;53.614;9.882;2023-04-24T09:56:50;99802.41;;;15.88;57.79
21520;BME280;10921;53.614;9.882;2023-04-24T09:59:18;99806.78;;;15.89;56.99
21520;BME280;10921;53.614;9.882;2023-04-24T10:01:45;99811.28;;;15.81;57.14
21520;BME280;10921;53.614;9.882;2023-04-24T10:04:19;99802.56;;;15.79;57.34
21520;BME280;10921;53.614;9.882;2023-04-24T10:06:48;99817.28;;;15.83;57.05
21520;BME280;10921;53.614;9.882;2023-04-24T10:09:16;99799.63;;;15.74;57.38
21520;BME280;10921;53.614;9.882;2023-04-24T10:11:45;99815.44;;;15.84;57.84
21520;BME280;10921;53.614;9.882;2023-04-24T10:14:15;99785.34;;;15.67;57.73
21520;BME280;10921;53.614;9.882;2023-04-24T10:16:42;99822.22;;;15.80;57.28
21520;BME280;10921;53.614;9.882;2023-04-24T10:19:10;99817.81;;;15.66;57.01
21520;BME280;10921;53.614;9.882;2023-04-24T10:21:40;99803.16;;;15.68;57.14
21520;BME280;10921;53.614;9.882;2023-04-24T10:24:17;99822.28;;;15.87;57.35
21520;BME280;10921;53.614;9.882;2023-04-24T10:26:48;99813.78;;;15.90;56.85
21520;BME280;10921;53.614;9.882;2023-04-24T10:29:17;99818.38;;;15.96;57.49
21520;BME280;10921;53.614;9.882;2023-04-24T10:31:44;99804.69;;;15.91;56.55
21520;BME280;10921;53.614;9.882;2023-04-24T10:34:15;99817.97;;;16.05;56.61
21520;BME280;10921;53.614;9.882;2023-04-24T10:36:47;99799.34;;;15.97;56.71
21520;BME280;10921;53.614;9.882;2023-04-24T10:39:16;99808.91;;;16.13;56.39
21520;BME280;10921;53.614;9.882;2023-04-24T10:41:43;99827.38;;;16.29;55.20
21520;BME280;10921;53.614;9.882;2023-04-24T10:44:11;99822.66;;;16.44;55.99
21520;BME280;10921;53.614;9.882;2023-04-24T10:46:42;99807.75;;;16.48;55.32
21520;BME280;10921;53.614;9.882;2023-04-24T10:49:09;99799.72;;;16.68;54.09
21520;BME280;10921;53.614;9.882;2023-04-24T10:51:53;99809.47;;;16.76;53.69
21520;BME280;10921;53.614;9.882;2023-04-24T10:54:23;99819.00;;;16.85;54.51
21520;BME280;10921;53.614;9.882;2023-04-24T10:56:51;99826.44;;;16.83;53.37
21520;BME280;10921;53.614;9.882;2023-04-24T10:59:26;99786.03;;;16.70;53.14
21520;BME280;10921;53.614;9.882;2023-04-24T11:01:54;99832.69;;;16.90;53.98
21520;BME280;10921;53.614;9.882;2023-04-24T11:04:31;99825.84;;;16.87;54.12
21520;BME280;10921;53.614;9.882;2023-04-24T11:06:58;99829.97;;;16.83;53.55
21520;BME280;10921;53.614;9.882;2023-04-24T11:09:30;99830.19;;;16.75;53.44
21520;BME280;10921;53.614;9.882;2023-04-24T11:12:07;99837.25;;;16.76;54.69
21520;BME280;10921;53.614;9.882;2023-04-24T11:17:31;99829.75;;;16.65;53.18
21520;BME280;10921;53.614;9.882;2023-04-24T11:20:07;99789.09;;;16.34;53.49
21520;BME280;10921;53.614;9.882;2023-04-24T11:22:53;99817.25;;;16.38;53.11
21520;BME280;10921;53.614;9.882;2023-04-24T11:25:24;99840.88;;;16.42;53.73
21520;BME280;10921;53.614;9.882;2023-04-24T11:28:03;99833.81;;;16.35;53.81
21520;BME280;10921;53.614;9.882;2023-04-24T11:30:31;99822.59;;;16.18;54.06
21520;BME280;10921;53.614;9.882;2023-04-24T11:33:05;99819.25;;;16.03;54.65
21520;BME280;10921;53.614;9.882;2023-04-24T11:35:51;99806.38;;;16.05;54.40
21520;BME280;10921;53.614;9.882;2023-04-24T11:38:17;99776.91;;;15.70;53.45
21520;BME280;10921;53.614;9.882;2023-04-24T11:40:51;99811.31;;;15.95;53.96
21520;BME280;10921;53.614;9.882;2023-04-24T11:43:18;99831.47;;;16.12;53.74
21520;BME280;10921;53.614;9.882;2023-04-24T11:45:49;99829.41;;;16.14;53.74
21520;BME280;10921;53.614;9.882;2023-04-24T11:48:20;99832.72;;;16.16;54.45
21520;BME280;10921;53.614;9.882;2023-04-24T11:50:50;99826.31;;;16.17;54.29
21520;BME280;10921;53.614;9.882;2023-04-24T11:53:19;99826.53;;;16.22;53.69
21520;BME280;10921;53.614;9.882;2023-04-24T11:55:46;99833.41;;;16.31;53.47
21520;BME280;10921;53.614;9.882;2023-04-24T11:58:13;99835.25;;;16.31;53.93
21520;BME280;10921;53.614;9.882;2023-04-24T12:00:40;99821.72;;;16.11;53.72
21520;BME280;10921;53.614;9.882;2023-04-24T12:03:08;99849.50;;;16.25;52.96
21520;BME280;10921;53.614;9.882;2023-04-24T12:05:35;99825.06;;;16.19;53.01
21520;BME280;10921;53.614;9.882;2023-04-24T12:08:03;99845.38;;;16.22;53.28
21520;BME280;10921;53.614;9.882;2023-04-24T12:10:31;99820.06;;;16.10;53.08
21520;BME280;10921;53.614;9.882;2023-04-24T12:12:58;99825.69;;;16.22;53.02
21520;BME280;10921;53.614;9.882;2023-04-24T12:15:26;99829.84;;;16.24;52.92
21520;BME280;10921;53.614;9.882;2023-04-24T12:17:54;99846.44;;;16.28;53.20
21520;BME280;10921;53.614;9.882;2023-04-24T12:22:55;99855.34;;;16.28;52.83
21520;BME280;10921;53.614;9.882;2023-04-24T12:25:26;99846.19;;;16.16;52.76
21520;BME280;10921;53.614;9.882;2023-04-24T12:28:13;99841.84;;;16.22;53.58
21520;BME280;10921;53.614;9.882;2023-04-24T12:30:47;99835.78;;;16.00;53.49
21520;BME280;10921;53.614;9.882;2023-04-24T12:33:19;99832.84;;;15.95;54.35
21520;BME280;10921;53.614;9.882;2023-04-24T12:35:47;99851.03;;;15.93;53.94
21520;BME280;10921;53.614;9.882;2023-04-24T12:38:15;99846.25;;;15.81;54.37
21520;BME280;10921;53.614;9.882;2023-04-24T12:40:43;99860.09;;;15.78;54.88
21520;BME280;10921;53.614;9.882;2023-04-24T12:43:17;99867.31;;;15.71;55.25
21520;BME280;10921;53.614;9.882;2023-04-24T12:45:44;99852.47;;;15.54;56.18
21520;BME280;10921;53.614;9.882;2023-04-24T12:48:13;99851.19;;;15.50;56.44
21520;BME280;10921;53.614;9.882;2023-04-24T12:50:41;99867.09;;;15.45;57.12
21520;BME280;10921;53.614;9.882;2023-04-24T12:53:11;99841.19;;;15.37;56.72
21520;BME280;10921;53.614;9.882;2023-04-24T12:55:38;99813.19;;;14.97;56.93
21520;BME280;10921;53.614;9.882;2023-04-24T12:58:04;99862.16;;;15.21;56.69
21520;BME280;10921;53.614;9.882;2023-04-24T13:00:31;99855.28;;;15.11;56.59
21520;BME280;10921;53.614;9.882;2023-04-24T13:02:58;99860.53;;;14.98;56.96
21520;BME280;10921;53.614;9.882;2023-04-24T13:05:25;99859.66;;;14.91;57.13
21520;BME280;10921;53.614;9.882;2023-04-24T13:07:52;99865.47;;;14.95;57.14
21520;BME280;10921;53.614;9.882;2023-04-24T13:10:18;99839.47;;;14.74;57.40
21520;BME280;10921;53.614;9.882;2023-04-24T13:12:45;99856.47;;;14.81;58.38